sensor_id;sensor_type;location;lat;lon;timestamp;P1;durP1;ratioP1;P2;durP2;ratioP2
50134;SDS011;36033;55.482;37.380;2022-07-01T18:25:47;3.53;;;2.43;;
50134;SDS011;36033;55.482;37.380;2022-07-01T18:28:29;5.60;;;3.00;;
50134;SDS011;36033;55.482;37.380;2022-07-01T18:31:10;10.43;;;2.75;;
50134;SDS011;36033;55.482;37.380;2022-07-01T18:33:37;18.33;;;3.50;;
50134;SDS011;36033;55.482;37.380;2022-07-01T18:36:08;8.00;;;2.85;;
50134;SDS011;36033;55.482;37.380;2022-07-01T18:38:35;12.63;;;2.63;;
50134;SDS011;36033;55.482;37.380;2022-07-01T18:41:01;4.88;;;2.75;;
50134;SDS011;36033;55.482;37.380;2022-07-01T18:43:27;5.75;;;2.50;;
50134;SDS011;36033;55.482;37.380;2022-07-01T18:45:53;9.38;;;3.00;;
50134;SDS011;36033;55.482;37.380;2022-07-01T18:48:19;3.75;;;2.33;;
50134;SDS011;36033;55.482;37.380;2022-07-01T18:50:45;6.78;;;3.95;;
50134;SDS011;36033;55.482;37.380;2022-07-01T18:53:10;7.50;;;4.03;;
50134;SDS011;36033;55.482;37.380;2022-07-01T18:55:36;4.68;;;2.03;;
50134;SDS011;36033;55.482;37.380;2022-07-01T18:58:02;4.90;;;1.73;;
50134;SDS011;36033;55.482;37.380;2022-07-01T19:00:28;2.65;;;1.67;;
50134;SDS011;36033;55.482;37.380;2022-07-01T19:02:56;12.70;;;2.15;;
50134;SDS011;36033;55.482;37.380;2022-07-01T19:05:21;5.55;;;2.25;;
50134;SDS011;36033;55.482;37.380;2022-07-01T19:07:48;4.22;;;2.20;;
50134;SDS011;36033;55.482;37.380;2022-07-01T19:10:14;5.15;;;2.35;;
50134;SDS011;36033;55.482;37.380;2022-07-01T19:12:41;8.07;;;2.45;;
50134;SDS011;36033;55.482;37.380;2022-07-01T19:17:33;4.43;;;2.07;;
50134;SDS011;36033;55.482;37.380;2022-07-01T19:22:25;5.70;;;2.35;;
50134;SDS011;36033;55.482;37.380;2022-07-01T19:24:51;4.18;;;1.63;;
50134;SDS011;36033;55.482;37.380;2022-07-01T19:29:44;2.92;;;2.00;;
50134;SDS011;36033;55.482;37.380;2022-07-01T19:32:10;4.13;;;1.95;;
50134;SDS011;36033;55.482;37.380;2022-07-01T19:34:36;4.00;;;2.45;;
50134;SDS011;36033;55.482;37.380;2022-07-01T19:37:02;9.13;;;2.58;;
50134;SDS011;36033;55.482;37.380;2022-07-01T19:39:28;3.47;;;2.38;;
50134;SDS011;36033;55.482;37.380;2022-07-01T19:41:55;3.90;;;2.45;;
50134;SDS011;36033;55.482;37.380;2022-07-01T19:44:20;7.47;;;3.15;;
50134;SDS011;36033;55.482;37.380;2022-07-01T19:46:46;9.38;;;3.88;;
50134;SDS011;36033;55.482;37.380;2022-07-01T19:49:11;3.70;;;3.00;;
50134;SDS011;36033;55.482;37.380;2022-07-01T19:51:37;8.35;;;4.32;;
50134;SDS011;36033;55.482;37.380;2022-07-01T19:54:03;7.30;;;4.97;;
50134;SDS011;36033;55.482;37.380;2022-07-01T19:56:30;9.85;;;4.82;;
50134;SDS011;36033;55.482;37.380;2022-07-01T20:01:22;9.15;;;4.70;;
50134;SDS011;36033;55.482;37.380;2022-07-01T20:03:48;10.80;;;4.60;;
50134;SDS011;36033;55.482;37.380;2022-07-01T20:06:14;4.95;;;3.03;;
50134;SDS011;36033;55.482;37.380;2022-07-01T20:08:40;4.40;;;3.03;;
50134;SDS011;36033;55.482;37.380;2022-07-01T20:11:06;6.97;;;4.40;;
50134;SDS011;36033;55.482;37.380;2022-07-01T20:13:32;4.93;;;3.92;;
50134;SDS011;36033;55.482;37.380;2022-07-01T20:15:57;4.82;;;3.85;;
50134;SDS011;36033;55.482;37.380;2022-07-01T20:18:23;11.63;;;4.22;;
50134;SDS011;36033;55.482;37.380;2022-07-01T20:20:52;6.03;;;5.40;;
50134;SDS011;36033;55.482;37.380;2022-07-01T20:23:19;7.03;;;4.70;;
50134;SDS011;36033;55.482;37.380;2022-07-01T20:25:45;32.55;;;22.48;;
50134;SDS011;36033;55.482;37.380;2022-07-01T20:28:17;42.40;;;29.38;;
50134;SDS011;36033;55.482;37.380;2022-07-01T20:30:45;28.35;;;19.08;;
50134;SDS011;36033;55.482;37.380;2022-07-01T20:33:10;21.33;;;15.67;;
50134;SDS011;36033;55.482;37.380;2022-07-01T20:35:36;22.08;;;12.45;;
50134;SDS011;36033;55.482;37.380;2022-07-01T20:38:01;20.95;;;12.10;;
50134;SDS011;36033;55.482;37.380;2022-07-01T20:40:27;11.90;;;8.20;;
50134;SDS011;36033;55.482;37.380;2022-07-01T20:42:52;7.88;;;6.30;;
50134;SDS011;36033;55.482;37.380;2022-07-01T20:45:19;8.70;;;4.93;;
50134;SDS011;36033;55.482;37.380;2022-07-01T20:47:45;7.18;;;3.78;;
50134;SDS011;36033;55.482;37.380;2022-07-01T20:50:11;11.00;;;4.35;;
50134;SDS011;36033;55.482;37.380;2022-07-01T20:52:39;15.52;;;7.70;;
50134;SDS011;36033;55.482;37.380;2022-07-01T20:55:05;12.60;;;8.85;;
50134;SDS011;36033;55.482;37.380;2022-07-01T20:57:31;11.32;;;8.00;;
50134;SDS011;36033;55.482;37.380;2022-07-01T20:59:57;8.90;;;6.18;;
50134;SDS011;36033;55.482;37.380;2022-07-01T21:02:23;9.57;;;4.82;;
50134;SDS011;36033;55.482;37.380;2022-07-01T21:04:51;8.35;;;5.15;;
50134;SDS011;36033;55.482;37.380;2022-07-01T21:07:20;11.98;;;4.35;;
50134;SDS011;36033;55.482;37.380;2022-07-01T21:09:47;8.50;;;4.22;;
50134;SDS011;36033;55.482;37.380;2022-07-01T21:12:12;9.52;;;5.22;;
50134;SDS011;36033;55.482;37.380;2022-07-01T21:14:39;9.07;;;4.85;;
50134;SDS011;36033;55.482;37.380;2022-07-01T21:17:04;6.18;;;4.13;;
50134;SDS011;36033;55.482;37.380;2022-07-01T21:19:30;7.43;;;4.93;;
50134;SDS011;36033;55.482;37.380;2022-07-01T21:21:56;9.15;;;3.70;;
50134;SDS011;36033;55.482;37.380;2022-07-01T21:24:23;7.18;;;4.90;;
50134;SDS011;36033;55.482;37.380;2022-07-01T21:26:51;11.85;;;5.50;;
50134;SDS011;36033;55.482;37.380;2022-07-01T21:29:17;10.55;;;4.28;;
50134;SDS011;36033;55.482;37.380;2022-07-01T21:31:43;9.20;;;4.25;;
50134;SDS011;36033;55.482;37.380;2022-07-01T21:34:09;20.17;;;5.05;;
50134;SDS011;36033;55.482;37.380;2022-07-01T21:36:36;6.35;;;5.07;;
50134;SDS011;36033;55.482;37.380;2022-07-01T21:39:02;10.05;;;4.32;;
50134;SDS011;36033;55.482;37.380;2022-07-01T21:41:31;7.65;;;3.78;;
50134;SDS011;36033;55.482;37.380;2022-07-01T21:43:57;8.55;;;4.40;;
50134;SDS011;36033;55.482;37.380;2022-07-01T21:46:25;5.70;;;4.43;;
50134;SDS011;36033;55.482;37.380;2022-07-01T21:48:53;6.20;;;4.38;;
50134;SDS011;36033;55.482;37.380;2022-07-01T21:51:20;5.95;;;3.92;;
50134;SDS011;36033;55.482;37.380;2022-07-01T21:53:46;12.13;;;4.65;;
50134;SDS011;36033;55.482;37.380;2022-07-01T21:56:13;6.30;;;4.13;;
50134;SDS011;36033;55.482;37.380;2022-07-01T21:58:44;11.75;;;6.47;;
50134;SDS011;36033;55.482;37.380;2022-07-01T22:01:13;10.68;;;6.13;;
50134;SDS011;36033;55.482;37.380;2022-07-01T22:03:40;11.52;;;5.22;;
50134;SDS011;36033;55.482;37.380;2022-07-01T22:06:06;6.75;;;4.53;;
50134;SDS011;36033;55.482;37.380;2022-07-01T22:08:45;8.43;;;6.80;;
50134;SDS011;36033;55.482;37.380;2022-07-01T22:11:16;11.60;;;5.70;;
50134;SDS011;36033;55.482;37.380;2022-07-01T22:14:00;9.48;;;4.95;;
50134;SDS011;36033;55.482;37.380;2022-07-01T22:16:30;8.65;;;4.53;;
50134;SDS011;36033;55.482;37.380;2022-07-01T22:18:57;6.65;;;3.53;;
50134;SDS011;36033;55.482;37.380;2022-07-01T22:21:24;14.25;;;5.60;;
50134;SDS011;36033;55.482;37.380;2022-07-01T22:23:53;11.65;;;4.50;;
50134;SDS011;36033;55.482;37.380;2022-07-01T22:26:20;6.20;;;3.58;;
50134;SDS011;36033;55.482;37.380;2022-07-01T22:28:50;6.00;;;4.40;;
50134;SDS011;36033;55.482;37.380;2022-07-01T22:31:17;6.95;;;3.92;;
50134;SDS011;36033;55.482;37.380;2022-07-01T22:33:45;7.68;;;3.78;;
50134;SDS011;36033;55.482;37.380;2022-07-01T22:36:12;6.35;;;4.28;;
50134;SDS011;36033;55.482;37.380;2022-07-01T22:38:39;7.32;;;3.53;;
50134;SDS011;36033;55.482;37.380;2022-07-01T22:41:06;12.18;;;3.42;;
50134;SDS011;36033;55.482;37.380;2022-07-01T22:43:33;6.82;;;4.10;;
50134;SDS011;36033;55.482;37.380;2022-07-01T22:54:43;6.45;;;4.25;;
50134;SDS011;36033;55.482;37.380;2022-07-01T23:00:22;6.22;;;3.85;;
50134;SDS011;36033;55.482;37.380;2022-07-01T23:02:48;5.82;;;3.95;;
50134;SDS011;36033;55.482;37.380;2022-07-01T23:05:15;6.55;;;3.90;;
50134;SDS011;36033;55.482;37.380;2022-07-01T23:15:28;8.40;;;5.50;;
50134;SDS011;36033;55.482;37.380;2022-07-01T23:18:17;12.90;;;5.82;;
50134;SDS011;36033;55.482;37.380;2022-07-01T23:20:42;6.27;;;4.30;;
50134;SDS011;36033;55.482;37.380;2022-07-01T23:23:08;6.57;;;5.35;;
50134;SDS011;36033;55.482;37.380;2022-07-01T23:25:37;14.93;;;4.60;;
50134;SDS011;36033;55.482;37.380;2022-07-01T23:28:04;8.55;;;5.13;;
50134;SDS011;36033;55.482;37.380;2022-07-01T23:30:30;13.38;;;5.85;;
50134;SDS011;36033;55.482;37.380;2022-07-01T23:32:57;5.43;;;4.20;;
50134;SDS011;36033;55.482;37.380;2022-07-01T23:35:23;7.85;;;5.63;;
50134;SDS011;36033;55.482;37.380;2022-07-01T23:37:51;8.35;;;5.22;;
50134;SDS011;36033;55.482;37.380;2022-07-01T23:40:17;5.53;;;4.07;;
50134;SDS011;36033;55.482;37.380;2022-07-01T23:42:44;10.50;;;6.50;;
50134;SDS011;36033;55.482;37.380;2022-07-01T23:45:10;8.23;;;5.90;;
50134;SDS011;36033;55.482;37.380;2022-07-01T23:47:36;9.98;;;5.07;;
50134;SDS011;36033;55.482;37.380;2022-07-01T23:50:03;11.77;;;5.47;;
50134;SDS011;36033;55.482;37.380;2022-07-01T23:52:30;10.10;;;6.55;;
50134;SDS011;36033;55.482;37.380;2022-07-01T23:54:55;8.17;;;5.43;;
50134;SDS011;36033;55.482;37.380;2022-07-01T23:57:21;8.77;;;4.63;;
50134;SDS011;36033;55.482;37.380;2022-07-01T23:59:46;6.37;;;5.17;;
